Time;durP1;ratioP1;P1;durP2;ratioP2;P2;SDS_P1;SDS_P2;PMS_P1;PMS_P2;Temp;Humidity;BMP_temperature;BMP_pressure;BME280_temperature;BME280_humidity;BME280_pressure;Samples;Min_cycle;Max_cycle;Signal;HPM_P1;HPM_P2
2023/10/22 00:02:09;;;;;;;8.23;4.35;;;17.20;99.90;;;;;;5130034;28;20468;-70
2023/10/22 00:04:35;;;;;;;9.52;4.40;;;17.20;99.90;;;;;;5129652;28;20027;-70
2023/10/22 00:07:00;;;;;;;9.27;3.50;;;17.10;99.90;;;;;;5129271;28;20019;-71
2023/10/22 00:09:26;;;;;;;4.35;3.33;;;17.10;99.90;;;;;;5099168;28;20375;-71
2023/10/22 00:11:51;;;;;;;4.55;3.25;;;17.10;99.90;;;;;;5115845;28;20020;-70
2023/10/22 00:14:17;;;;;;;5.82;3.10;;;17.00;99.90;;;;;;5116099;28;20425;-71
2023/10/22 00:16:43;;;;;;;3.05;2.63;;;17.00;99.90;;;;;;5115509;28;20067;-70
2023/10/22 00:19:09;;;;;;;8.38;3.50;;;17.00;99.90;;;;;;5116051;28;20474;-70
2023/10/22 00:21:34;;;;;;;3.70;2.63;;;17.00;99.90;;;;;;5115750;28;20027;-70
2023/10/22 00:24:00;;;;;;;3.50;2.47;;;16.90;99.90;;;;;;5115550;28;20031;-71
2023/10/22 00:26:25;;;;;;;4.47;2.45;;;16.90;99.90;;;;;;5115985;28;20377;-70
2023/10/22 00:28:51;;;;;;;3.28;2.10;;;16.90;99.90;;;;;;5115209;28;20027;-70
2023/10/22 00:31:17;;;;;;;5.15;2.42;;;16.90;99.90;;;;;;5115740;28;20034;-70
2023/10/22 00:33:43;;;;;;;2.63;1.90;;;16.90;99.90;;;;;;5115340;28;20024;-70
2023/10/22 00:36:08;;;;;;;4.47;2.15;;;16.90;99.90;;;;;;5115629;28;20026;-70
2023/10/22 00:38:34;;;;;;;2.17;1.67;;;16.90;99.50;;;;;;5115964;28;20038;-71
2023/10/22 00:40:59;;;;;;;1.85;1.60;;;16.90;98.90;;;;;;5115103;28;20024;-71
2023/10/22 00:43:25;;;;;;;3.83;1.60;;;16.80;98.70;;;;;;5115789;28;20020;-70
2023/10/22 00:45:52;;;;;;;4.15;1.92;;;16.80;98.70;;;;;;5115128;28;20019;-71
2023/10/22 00:48:20;;;;;;;2.38;1.75;;;16.90;98.40;;;;;;5115477;28;20030;-70
2023/10/22 00:50:46;;;;;;;6.03;1.73;;;16.80;98.20;;;;;;5115017;28;20047;-71
2023/10/22 00:53:15;;;;;;;2.15;1.52;;;16.80;97.90;;;;;;5117623;28;20024;-71
2023/10/22 00:55:43;;;;;;;2.78;1.58;;;16.80;98.00;;;;;;5118214;27;20028;-70
2023/10/22 00:58:09;;;;;;;4.25;1.63;;;16.80;98.00;;;;;;5117208;27;20058;-70
2023/10/22 01:00:35;;;;;;;4.45;1.77;;;16.80;98.00;;;;;;5116859;28;20027;-70
2023/10/22 01:03:01;;;;;;;2.03;1.70;;;16.70;98.10;;;;;;5115188;28;20396;-71
2023/10/22 01:05:28;;;;;;;4.07;2.00;;;16.80;98.10;;;;;;5115346;28;20063;-70
2023/10/22 01:07:54;;;;;;;3.42;1.67;;;16.70;98.30;;;;;;5114765;28;20059;-71
2023/10/22 01:10:20;;;;;;;2.50;1.90;;;16.70;98.50;;;;;;5115146;28;20375;-71
2023/10/22 01:12:45;;;;;;;4.05;1.67;;;16.70;98.40;;;;;;5114844;28;20384;-71
2023/10/22 01:15:11;;;;;;;1.98;1.48;;;16.70;98.40;;;;;;5115164;28;20027;-71
2023/10/22 01:17:37;;;;;;;1.83;1.55;;;16.70;98.20;;;;;;5114897;28;20028;-71
2023/10/22 01:20:03;;;;;;;3.45;1.80;;;16.70;98.30;;;;;;5113155;28;20030;-70
2023/10/22 01:22:28;;;;;;;2.35;1.42;;;16.70;98.10;;;;;;5114782;28;20114;-71
2023/10/22 01:24:54;;;;;;;1.65;1.30;;;16.70;98.10;;;;;;5114128;28;20103;-72
2023/10/22 01:27:20;;;;;;;2.42;1.23;;;16.70;97.60;;;;;;5114598;28;20491;-71
2023/10/22 01:29:45;;;;;;;1.75;1.10;;;16.60;96.90;;;;;;5113996;28;20023;-71
2023/10/22 01:32:12;;;;;;;1.45;1.00;;;16.60;96.80;;;;;;5114663;28;20019;-71
2023/10/22 01:34:37;;;;;;;1.10;0.90;;;16.60;96.70;;;;;;5114487;28;20065;-71
2023/10/22 01:37:03;;;;;;;3.97;1.05;;;16.60;96.50;;;;;;5113665;28;20039;-70
2023/10/22 01:39:28;;;;;;;2.47;1.00;;;16.60;95.70;;;;;;5114228;28;20384;-69
2023/10/22 01:41:54;;;;;;;2.97;1.00;;;16.60;95.80;;;;;;5114223;28;20070;-70
2023/10/22 01:44:20;;;;;;;1.27;0.93;;;16.50;95.70;;;;;;5096180;28;20429;-70
2023/10/22 01:46:45;;;;;;;1.33;0.77;;;16.50;95.40;;;;;;5126689;27;20092;-70
2023/10/22 01:49:11;;;;;;;1.88;0.82;;;16.40;95.20;;;;;;5134467;27;20098;-71
2023/10/22 01:51:37;;;;;;;1.38;0.85;;;16.40;95.30;;;;;;5134351;27;20023;-71
2023/10/22 01:54:05;;;;;;;1.95;0.88;;;16.40;95.10;;;;;;5134298;27;20368;-71
2023/10/22 01:56:30;;;;;;;3.85;0.90;;;16.40;94.60;;;;;;5134464;27;20046;-71
2023/10/22 01:58:56;;;;;;;2.45;0.82;;;16.30;94.10;;;;;;5134318;27;20060;-71
2023/10/22 02:01:22;;;;;;;2.25;1.00;;;16.30;94.20;;;;;;5134603;27;20031;-71
2023/10/22 02:03:48;;;;;;;1.30;0.80;;;16.30;93.80;;;;;;5133863;27;20467;-71
2023/10/22 02:06:14;;;;;;;2.45;0.70;;;16.20;93.80;;;;;;5134254;27;20034;-71
2023/10/22 02:08:40;;;;;;;0.82;0.80;;;16.20;93.40;;;;;;5134456;27;20027;-71
2023/10/22 02:11:06;;;;;;;1.10;0.70;;;16.20;93.30;;;;;;5134018;27;20325;-71
2023/10/22 02:13:32;;;;;;;0.80;0.70;;;16.20;93.00;;;;;;5134209;27;20451;-71
2023/10/22 02:15:58;;;;;;;2.45;0.60;;;16.10;92.90;;;;;;5115213;27;20098;-70
2023/10/22 02:18:23;;;;;;;1.88;0.85;;;16.10;93.10;;;;;;5134263;27;20056;-71
2023/10/22 02:20:57;;;;;;;1.88;0.88;;;16.00;93.00;;;;;;5134102;27;20367;-71
2023/10/22 02:23:23;;;;;;;1.85;0.90;;;16.00;93.10;;;;;;5134237;27;20367;-71
2023/10/22 02:25:49;;;;;;;0.70;0.70;;;16.00;93.10;;;;;;5133763;27;20033;-71
2023/10/22 02:28:19;;;;;;;1.63;1.08;;;16.00;92.90;;;;;;5134106;27;20035;-71
2023/10/22 02:30:47;;;;;;;1.23;0.88;;;15.90;92.80;;;;;;5133853;27;20364;-71
2023/10/22 02:33:13;;;;;;;1.08;0.70;;;15.90;92.90;;;;;;5115772;27;20027;-71
2023/10/22 02:35:43;;;;;;;3.20;1.10;;;15.90;93.10;;;;;;5133806;27;20031;-71
2023/10/22 02:38:13;;;;;;;0.98;0.80;;;15.90;92.90;;;;;;5133528;27;20034;-71
2023/10/22 02:40:39;;;;;;;1.98;1.05;;;15.90;92.90;;;;;;5133881;27;20039;-71
2023/10/22 02:43:05;;;;;;;2.35;0.90;;;15.90;92.80;;;;;;5115081;27;20519;-71
2023/10/22 02:45:30;;;;;;;2.53;0.88;;;15.80;92.80;;;;;;5134045;27;20451;-71
2023/10/22 02:48:00;;;;;;;0.77;0.70;;;15.80;92.80;;;;;;5133272;27;20027;-71
2023/10/22 02:50:26;;;;;;;0.95;0.70;;;15.80;92.90;;;;;;5133679;27;20026;-71
2023/10/22 02:52:54;;;;;;;2.80;1.20;;;15.80;92.90;;;;;;5133638;27;20019;-71
2023/10/22 02:55:19;;;;;;;1.50;1.00;;;15.80;93.00;;;;;;5133715;28;20051;-70
2023/10/22 02:57:45;;;;;;;3.00;0.80;;;15.70;93.00;;;;;;5133175;28;20089;-71
2023/10/22 03:00:12;;;;;;;2.33;0.80;;;15.70;93.00;;;;;;5133303;28;20023;-71
2023/10/22 03:02:38;;;;;;;1.25;0.82;;;15.70;92.80;;;;;;5133819;28;20027;-71
2023/10/22 03:05:04;;;;;;;1.35;1.00;;;15.70;92.70;;;;;;5130972;28;20490;-71
2023/10/22 03:07:30;;;;;;;1.05;0.68;;;15.70;92.80;;;;;;5113944;28;20024;-70
2023/10/22 03:09:56;;;;;;;1.33;0.90;;;15.70;92.80;;;;;;5095599;28;20376;-70
2023/10/22 03:12:21;;;;;;;2.40;0.88;;;15.70;92.60;;;;;;5115024;28;20371;-71
2023/10/22 03:14:50;;;;;;;3.70;0.95;;;15.70;92.50;;;;;;5115453;28;20028;-71
2023/10/22 03:17:17;;;;;;;4.45;0.90;;;15.70;92.60;;;;;;5113729;28;20059;-70
2023/10/22 03:19:43;;;;;;;2.00;0.80;;;15.70;92.50;;;;;;5113151;28;20091;-70
2023/10/22 03:22:09;;;;;;;2.05;1.10;;;15.70;92.50;;;;;;5112673;28;20054;-70
2023/10/22 03:24:35;;;;;;;1.90;0.90;;;15.60;92.60;;;;;;5113085;28;20059;-70
2023/10/22 03:27:00;;;;;;;1.85;0.93;;;15.60;92.80;;;;;;5112354;28;20046;-70
2023/10/22 03:29:27;;;;;;;2.50;0.70;;;15.60;92.50;;;;;;5112687;28;20028;-70
2023/10/22 03:31:52;;;;;;;2.13;0.85;;;15.60;92.60;;;;;;5112479;28;20023;-70
2023/10/22 03:34:18;;;;;;;4.88;0.90;;;15.60;92.40;;;;;;5112918;28;20081;-70
2023/10/22 03:36:44;;;;;;;1.13;0.80;;;15.60;92.50;;;;;;5112539;28;20031;-70
2023/10/22 03:39:10;;;;;;;0.77;0.68;;;15.60;92.40;;;;;;5112354;28;20028;-70
2023/10/22 03:41:36;;;;;;;1.75;0.70;;;15.60;92.30;;;;;;5112592;28;20030;-71
2023/10/22 03:44:02;;;;;;;1.17;0.60;;;15.60;92.30;;;;;;5114172;28;20027;-69
2023/10/22 03:46:27;;;;;;;0.90;0.70;;;15.60;92.20;;;;;;5116608;28;20027;-70
2023/10/22 03:48:56;;;;;;;1.30;0.60;;;15.60;92.10;;;;;;5118847;27;20109;-74
2023/10/22 03:51:22;;;;;;;1.33;0.63;;;15.50;92.00;;;;;;5136797;27;20123;-70
2023/10/22 03:53:49;;;;;;;0.98;0.50;;;15.50;92.00;;;;;;5118605;27;20118;-70
2023/10/22 03:56:14;;;;;;;1.52;0.73;;;15.60;91.80;;;;;;5136374;27;20047;-70
2023/10/22 03:58:40;;;;;;;0.57;0.57;;;15.60;91.60;;;;;;5137248;27;20495;-70
2023/10/22 04:01:06;;;;;;;3.33;1.30;;;15.60;91.40;;;;;;5136322;27;20102;-70
2023/10/22 04:03:32;;;;;;;0.77;0.60;;;15.60;91.40;;;;;;5136541;27;20110;-70
2023/10/22 04:05:58;;;;;;;0.95;0.60;;;15.50;91.50;;;;;;5136383;27;20023;-71
2023/10/22 04:08:24;;;;;;;0.70;0.70;;;15.50;91.30;;;;;;5136826;27;20023;-70
2023/10/22 04:10:51;;;;;;;1.30;0.63;;;15.50;91.40;;;;;;5136872;27;20031;-70
2023/10/22 04:13:17;;;;;;;2.40;0.80;;;15.50;91.40;;;;;;5136365;27;20027;-71
2023/10/22 04:15:45;;;;;;;1.58;0.77;;;15.50;91.50;;;;;;5136661;27;20544;-69
2023/10/22 04:18:11;;;;;;;1.15;0.70;;;15.50;91.50;;;;;;5136146;27;20076;-69
2023/10/22 04:20:36;;;;;;;2.15;0.60;;;15.50;91.40;;;;;;5136285;27;20031;-70
2023/10/22 04:23:02;;;;;;;1.20;0.77;;;15.50;91.40;;;;;;5135890;27;20039;-71
2023/10/22 04:25:28;;;;;;;2.05;0.90;;;15.50;91.30;;;;;;5136419;27;20031;-70
2023/10/22 04:27:54;;;;;;;2.35;0.70;;;15.50;91.30;;;;;;5117993;27;20057;-70
2023/10/22 04:30:20;;;;;;;1.38;0.85;;;15.50;91.30;;;;;;5136029;27;20035;-70
2023/10/22 04:32:46;;;;;;;2.17;0.63;;;15.50;91.20;;;;;;5136263;27;20079;-70
2023/10/22 04:35:11;;;;;;;1.33;0.70;;;15.50;91.00;;;;;;5135817;27;20491;-70
2023/10/22 04:37:37;;;;;;;0.60;0.60;;;15.50;91.00;;;;;;5117708;27;20036;-70
2023/10/22 04:40:03;;;;;;;3.55;0.82;;;15.40;91.00;;;;;;5135998;27;20068;-70
2023/10/22 04:42:29;;;;;;;1.17;0.70;;;15.50;91.00;;;;;;5136200;27;20023;-70
2023/10/22 04:44:55;;;;;;;1.50;0.70;;;15.40;91.00;;;;;;5135807;27;20031;-71
2023/10/22 04:47:21;;;;;;;0.57;0.55;;;15.40;91.00;;;;;;5135375;27;20027;-70
2023/10/22 04:49:47;;;;;;;0.77;0.52;;;15.40;91.00;;;;;;5136103;27;20030;-70
2023/10/22 04:52:32;;;;;;;1.08;0.60;;;15.40;90.80;;;;;;5135597;27;20112;-70
2023/10/22 04:54:59;;;;;;;1.73;0.60;;;15.40;90.90;;;;;;5135604;27;20030;-74
2023/10/22 04:57:26;;;;;;;1.25;0.63;;;15.40;90.80;;;;;;5135761;27;20088;-70
2023/10/22 04:59:52;;;;;;;2.03;0.70;;;15.40;90.70;;;;;;5135745;27;20031;-70
2023/10/22 05:02:18;;;;;;;0.95;0.50;;;15.40;90.60;;;;;;5135289;27;20353;-70
2023/10/22 05:04:47;;;;;;;0.73;0.40;;;15.40;90.60;;;;;;5135447;27;20194;-70
2023/10/22 05:07:14;;;;;;;0.88;0.57;;;15.40;90.50;;;;;;5135245;27;20031;-70
2023/10/22 05:09:39;;;;;;;1.08;0.55;;;15.40;90.50;;;;;;5135618;27;20030;-70
2023/10/22 05:12:05;;;;;;;2.88;0.45;;;15.30;90.60;;;;;;5131564;27;20455;-70
2023/10/22 05:14:31;;;;;;;1.30;0.60;;;15.30;90.80;;;;;;5135497;27;20467;-71
2023/10/22 05:16:57;;;;;;;0.65;0.43;;;15.30;91.00;;;;;;5135532;27;20037;-70
2023/10/22 05:19:23;;;;;;;2.83;0.50;;;15.30;91.50;;;;;;5134970;27;20460;-70
2023/10/22 05:21:48;;;;;;;2.67;0.60;;;15.20;91.90;;;;;;5133905;27;20038;-71
2023/10/22 05:24:14;;;;;;;0.40;0.30;;;15.20;92.30;;;;;;5125618;27;20069;-69
2023/10/22 05:26:40;;;;;;;0.70;0.50;;;15.10;92.70;;;;;;5114548;28;20035;-71
2023/10/22 05:29:06;;;;;;;0.52;0.40;;;15.10;93.00;;;;;;5114455;28;20032;-71
2023/10/22 05:31:32;;;;;;;0.65;0.47;;;15.10;93.40;;;;;;5114457;28;20119;-71
2023/10/22 05:33:57;;;;;;;1.80;0.50;;;15.00;93.90;;;;;;5100814;27;20111;-71
2023/10/22 05:36:24;;;;;;;0.93;0.75;;;15.00;94.40;;;;;;5120376;27;20032;-71
2023/10/22 05:38:50;;;;;;;2.35;1.20;;;14.90;94.80;;;;;;5114350;28;20349;-71
2023/10/22 05:41:26;;;;;;;1.85;0.50;;;14.90;95.40;;;;;;5113759;28;20034;-71
2023/10/22 05:43:59;;;;;;;0.40;0.40;;;14.80;95.90;;;;;;5119600;27;20023;-71
2023/10/22 05:46:25;;;;;;;1.20;0.57;;;14.70;96.20;;;;;;5108838;27;20069;-71
2023/10/22 05:48:51;;;;;;;0.60;0.43;;;14.70;96.50;;;;;;5096203;28;20083;-70
2023/10/22 05:51:17;;;;;;;1.85;0.50;;;14.60;96.60;;;;;;5128910;27;20030;-69
2023/10/22 05:53:44;;;;;;;0.57;0.50;;;14.60;96.70;;;;;;5117535;27;20015;-69
2023/10/22 05:56:09;;;;;;;2.10;0.70;;;14.60;96.80;;;;;;5134482;27;20366;-70
2023/10/22 05:58:35;;;;;;;5.22;0.50;;;14.50;96.70;;;;;;5115879;27;20035;-70
2023/10/22 06:01:02;;;;;;;1.20;0.52;;;14.50;96.80;;;;;;5134703;27;20031;-69
2023/10/22 06:03:28;;;;;;;2.75;0.60;;;14.50;96.40;;;;;;5134067;27;20476;-69
2023/10/22 06:05:54;;;;;;;1.73;0.57;;;14.50;96.20;;;;;;5134402;27;20052;-70
2023/10/22 06:08:20;;;;;;;0.45;0.35;;;14.50;96.10;;;;;;5134063;27;20104;-71
2023/10/22 06:10:48;;;;;;;1.75;0.35;;;14.50;95.90;;;;;;5134467;27;20123;-70
2023/10/22 06:13:14;;;;;;;0.77;0.50;;;14.50;95.80;;;;;;5133627;27;20027;-70
2023/10/22 06:15:42;;;;;;;1.45;0.40;;;14.60;95.60;;;;;;5134386;27;20023;-70
2023/10/22 06:18:08;;;;;;;1.27;0.60;;;14.60;95.40;;;;;;5133854;27;20039;-71
2023/10/22 06:20:35;;;;;;;1.38;0.55;;;14.60;95.20;;;;;;5134467;27;20076;-70
2023/10/22 06:23:02;;;;;;;6.25;0.70;;;14.60;95.20;;;;;;5134532;27;20023;-71
2023/10/22 06:25:28;;;;;;;0.70;0.40;;;14.60;95.20;;;;;;5127650;27;20376;-70
2023/10/22 06:27:55;;;;;;;0.68;0.45;;;14.60;95.10;;;;;;5113418;28;20038;-71
2023/10/22 06:30:25;;;;;;;0.70;0.38;;;14.60;95.00;;;;;;5131837;27;20072;-69
2023/10/22 06:32:51;;;;;;;0.93;0.70;;;14.70;94.90;;;;;;5134201;27;20102;-71
2023/10/22 06:35:21;;;;;;;1.58;0.60;;;14.70;94.70;;;;;;5115279;27;20110;-71
2023/10/22 06:37:50;;;;;;;0.55;0.40;;;14.70;94.30;;;;;;5133880;27;20031;-71
2023/10/22 06:40:17;;;;;;;1.23;0.65;;;14.70;94.10;;;;;;5133449;27;20420;-70
2023/10/22 06:42:42;;;;;;;1.50;0.60;;;14.80;94.30;;;;;;5134004;27;20095;-71
2023/10/22 06:45:09;;;;;;;1.17;0.57;;;14.80;94.10;;;;;;5133519;27;20057;-71
2023/10/22 06:47:38;;;;;;;1.20;0.77;;;14.70;93.90;;;;;;5133941;27;20110;-71
2023/10/22 06:50:05;;;;;;;2.38;0.50;;;14.80;93.80;;;;;;5114839;28;20031;-71
2023/10/22 06:52:31;;;;;;;0.50;0.50;;;14.80;93.70;;;;;;5112787;28;20020;-71
2023/10/22 06:54:57;;;;;;;0.77;0.50;;;14.80;93.70;;;;;;5094959;28;20020;-71
2023/10/22 06:57:23;;;;;;;6.18;1.02;;;14.80;93.60;;;;;;5124551;28;20051;-71
2023/10/22 06:59:48;;;;;;;1.70;0.73;;;14.80;93.30;;;;;;5121169;28;20585;-71
2023/10/22 07:02:15;;;;;;;0.98;0.60;;;14.90;93.40;;;;;;5133164;28;20459;-71
2023/10/22 07:04:42;;;;;;;0.60;0.50;;;14.90;93.00;;;;;;5115417;28;20054;-70
2023/10/22 07:07:08;;;;;;;0.65;0.60;;;14.90;92.70;;;;;;5113074;28;20042;-70
2023/10/22 07:09:33;;;;;;;0.70;0.70;;;14.90;92.50;;;;;;5112419;28;20426;-72
2023/10/22 07:11:59;;;;;;;1.75;0.70;;;15.00;92.40;;;;;;5113015;28;20031;-71
2023/10/22 07:14:26;;;;;;;1.40;0.68;;;15.00;92.40;;;;;;5112535;28;20127;-69
2023/10/22 07:16:52;;;;;;;5.72;0.63;;;15.00;92.20;;;;;;5112861;28;20040;-70
2023/10/22 07:19:17;;;;;;;0.95;0.75;;;15.00;91.70;;;;;;5096854;28;20027;-70
2023/10/22 07:21:44;;;;;;;0.85;0.70;;;15.00;91.60;;;;;;5117101;28;20023;-70
2023/10/22 07:24:09;;;;;;;0.77;0.70;;;15.00;91.80;;;;;;5098587;27;20383;-72
2023/10/22 07:26:35;;;;;;;1.13;0.63;;;15.10;91.60;;;;;;5124206;27;20032;-69
2023/10/22 07:29:00;;;;;;;2.15;0.70;;;15.10;91.60;;;;;;5117015;28;20027;-70
2023/10/22 07:31:26;;;;;;;1.48;0.90;;;15.10;91.50;;;;;;5116230;28;20023;-71
2023/10/22 07:33:52;;;;;;;2.63;1.05;;;15.10;91.30;;;;;;5116775;28;20020;-70
2023/10/22 07:36:17;;;;;;;1.02;0.80;;;15.20;91.20;;;;;;5131814;27;20023;-70
2023/10/22 07:38:43;;;;;;;0.90;0.80;;;15.20;91.00;;;;;;5137421;27;20026;-71
2023/10/22 07:41:15;;;;;;;1.75;0.98;;;15.20;90.80;;;;;;5118612;27;20386;-70
2023/10/22 07:43:41;;;;;;;1.92;0.80;;;15.30;90.60;;;;;;5116773;28;20102;-70
2023/10/22 07:46:07;;;;;;;1.95;0.80;;;15.40;90.10;;;;;;5119800;27;20090;-70
2023/10/22 07:48:33;;;;;;;0.85;0.60;;;15.40;90.00;;;;;;5137621;27;20851;-69
2023/10/22 07:51:12;;;;;;;0.80;0.68;;;15.50;90.00;;;;;;5137282;27;20106;-70
2023/10/22 07:53:38;;;;;;;0.60;0.60;;;15.50;89.50;;;;;;5129886;27;20027;-70
2023/10/22 07:56:05;;;;;;;1.00;0.77;;;15.60;89.60;;;;;;5116532;28;20027;-69
2023/10/22 07:58:32;;;;;;;0.82;0.63;;;15.60;88.60;;;;;;5116352;28;20576;-70
2023/10/22 08:00:58;;;;;;;0.93;0.63;;;15.60;88.20;;;;;;5116728;28;20384;-70
2023/10/22 08:03:23;;;;;;;1.13;0.52;;;15.70;88.10;;;;;;5116023;28;20482;-69
2023/10/22 08:05:49;;;;;;;1.27;0.63;;;15.70;87.70;;;;;;5116848;28;20030;-70
2023/10/22 08:08:15;;;;;;;0.70;0.60;;;15.70;87.50;;;;;;5116332;28;20028;-73
2023/10/22 08:10:40;;;;;;;1.10;0.60;;;15.70;87.30;;;;;;5098098;28;20417;-70
2023/10/22 08:13:06;;;;;;;0.40;0.40;;;15.80;87.10;;;;;;5098009;28;20024;-69
2023/10/22 08:15:34;;;;;;;0.68;0.35;;;15.80;86.80;;;;;;5115560;28;20023;-69
2023/10/22 08:18:00;;;;;;;0.45;0.40;;;15.80;86.10;;;;;;5116089;28;20032;-70
2023/10/22 08:20:25;;;;;;;2.88;0.50;;;15.80;86.30;;;;;;5115594;28;20121;-70
2023/10/22 08:22:51;;;;;;;1.73;0.50;;;15.80;86.10;;;;;;5115725;28;20081;-70
2023/10/22 08:25:17;;;;;;;0.55;0.50;;;15.80;85.50;;;;;;5115206;28;20064;-70
2023/10/22 08:27:42;;;;;;;0.38;0.30;;;15.80;85.00;;;;;;5124408;27;20031;-72
2023/10/22 08:30:08;;;;;;;1.30;0.65;;;15.80;84.90;;;;;;5136452;27;20031;-70
2023/10/22 08:32:34;;;;;;;0.65;0.50;;;15.80;85.30;;;;;;5135660;27;20027;-70
2023/10/22 08:35:01;;;;;;;0.80;0.40;;;15.80;85.50;;;;;;5136365;27;20023;-71
2023/10/22 08:37:27;;;;;;;1.48;0.50;;;15.80;85.60;;;;;;5136102;27;20023;-70
2023/10/22 08:39:52;;;;;;;1.00;0.50;;;15.80;85.00;;;;;;5118112;27;20026;-69
2023/10/22 08:42:23;;;;;;;0.77;0.50;;;15.80;84.80;;;;;;5117478;27;20033;-70
2023/10/22 08:44:49;;;;;;;0.57;0.52;;;15.80;85.10;;;;;;5136375;27;20034;-70
2023/10/22 08:47:16;;;;;;;1.55;0.50;;;15.80;85.00;;;;;;5117811;27;20031;-70
2023/10/22 08:49:42;;;;;;;2.53;0.50;;;15.80;84.70;;;;;;5116217;27;20063;-70
2023/10/22 08:52:08;;;;;;;0.63;0.32;;;15.90;84.40;;;;;;5097192;28;20077;-70
2023/10/22 08:54:37;;;;;;;0.60;0.50;;;15.90;84.40;;;;;;5115200;28;20024;-70
2023/10/22 08:57:03;;;;;;;1.65;0.45;;;15.90;84.30;;;;;;5114858;28;20142;-70
2023/10/22 08:59:29;;;;;;;0.85;0.52;;;15.90;84.00;;;;;;5114911;28;20032;-69
2023/10/22 09:01:56;;;;;;;0.32;0.30;;;15.90;84.40;;;;;;5115264;28;20051;-69
2023/10/22 09:04:22;;;;;;;3.70;0.80;;;15.90;84.30;;;;;;5117065;27;20028;-70
2023/10/22 09:06:53;;;;;;;0.65;0.50;;;15.90;84.10;;;;;;5115452;28;20034;-70
2023/10/22 09:09:37;;;;;;;0.85;0.40;;;15.90;84.10;;;;;;5115403;28;20035;-70
2023/10/22 09:12:04;;;;;;;0.57;0.47;;;15.90;84.10;;;;;;5115267;28;20027;-69
2023/10/22 09:14:30;;;;;;;2.50;0.57;;;15.90;84.10;;;;;;5114446;28;20034;-70
2023/10/22 09:16:56;;;;;;;1.30;0.60;;;15.90;83.90;;;;;;5115141;28;20035;-69
2023/10/22 09:19:41;;;;;;;0.60;0.47;;;15.90;83.90;;;;;;5096359;28;20035;-71
2023/10/22 09:22:19;;;;;;;0.73;0.50;;;15.90;84.10;;;;;;5114902;28;20432;-70
2023/10/22 09:24:50;;;;;;;1.17;0.65;;;15.90;84.50;;;;;;5114307;28;20027;-70
2023/10/22 09:27:26;;;;;;;1.02;0.57;;;15.90;84.70;;;;;;5114867;28;20051;-70
2023/10/22 09:29:53;;;;;;;1.15;0.60;;;15.90;84.40;;;;;;5122829;27;20038;-70
2023/10/22 09:32:20;;;;;;;2.15;0.50;;;15.90;84.60;;;;;;5135279;27;20042;-70
2023/10/22 09:34:46;;;;;;;0.88;0.60;;;16.00;84.60;;;;;;5134848;27;20034;-68
2023/10/22 09:37:12;;;;;;;1.90;0.57;;;15.90;84.60;;;;;;5134575;27;20039;-70
2023/10/22 09:39:45;;;;;;;1.42;0.52;;;16.00;84.70;;;;;;5134535;27;20023;-71
2023/10/22 09:42:12;;;;;;;0.85;0.50;;;15.90;84.60;;;;;;5133932;27;20027;-70
2023/10/22 09:44:40;;;;;;;1.08;0.80;;;16.00;84.50;;;;;;5134653;27;20028;-70
2023/10/22 09:47:07;;;;;;;1.42;0.70;;;15.90;84.20;;;;;;5116638;27;20092;-69
2023/10/22 09:49:35;;;;;;;1.13;0.70;;;15.90;84.10;;;;;;5132441;27;21688;-70
2023/10/22 09:52:02;;;;;;;1.10;0.57;;;15.90;83.70;;;;;;5128862;27;20475;-71
2023/10/22 09:54:39;;;;;;;0.70;0.40;;;15.90;83.80;;;;;;5134565;27;20023;-73
2023/10/22 09:57:15;;;;;;;3.50;0.50;;;16.00;86.10;;;;;;5133196;27;20057;-71
2023/10/22 09:59:42;;;;;;;2.40;0.63;;;16.00;86.40;;;;;;5134656;27;20023;-69
2023/10/22 10:02:17;;;;;;;1.10;0.35;;;16.10;86.50;;;;;;5135387;27;20023;-72
2023/10/22 10:04:43;;;;;;;2.45;0.70;;;16.10;87.20;;;;;;5134642;27;20498;-71
2023/10/22 10:07:09;;;;;;;2.00;0.80;;;16.10;88.70;;;;;;5134670;27;20440;-72
2023/10/22 10:09:36;;;;;;;0.90;0.57;;;16.10;88.00;;;;;;5134426;27;20134;-69
2023/10/22 10:12:08;;;;;;;1.02;0.60;;;16.10;88.50;;;;;;5126228;27;20035;-70
2023/10/22 10:14:47;;;;;;;1.67;0.75;;;16.10;88.00;;;;;;5114135;28;20053;-69
2023/10/22 10:17:14;;;;;;;1.23;0.75;;;16.10;87.70;;;;;;5114250;28;20050;-70
2023/10/22 10:19:40;;;;;;;3.08;0.90;;;16.10;87.80;;;;;;5130099;27;20018;-69
2023/10/22 10:22:07;;;;;;;0.80;0.60;;;16.10;86.20;;;;;;5131789;27;20023;-69
2023/10/22 10:24:33;;;;;;;1.27;0.60;;;16.10;86.40;;;;;;5134516;27;20054;-70
2023/10/22 10:26:59;;;;;;;4.65;0.80;;;16.10;87.40;;;;;;5134682;27;20038;-71
2023/10/22 10:29:26;;;;;;;1.17;0.70;;;16.10;87.20;;;;;;5134491;27;20057;-71
2023/10/22 10:31:55;;;;;;;2.20;0.68;;;16.10;86.50;;;;;;5134368;27;20019;-72
2023/10/22 10:34:39;;;;;;;2.05;0.57;;;16.10;85.80;;;;;;5134221;27;20027;-66
2023/10/22 10:37:12;;;;;;;2.90;0.70;;;16.20;85.40;;;;;;5134174;27;20031;-64
2023/10/22 10:39:49;;;;;;;2.17;0.47;;;16.20;84.50;;;;;;5113275;27;20036;-67
2023/10/22 10:42:36;;;;;;;1.25;0.70;;;16.30;84.00;;;;;;5122528;27;20024;-73
2023/10/22 10:45:04;;;;;;;1.02;0.50;;;16.30;85.90;;;;;;5113785;28;20023;-69
2023/10/22 10:47:31;;;;;;;1.60;0.73;;;16.40;84.50;;;;;;5113175;28;20035;-70
2023/10/22 10:50:05;;;;;;;2.30;0.60;;;16.40;84.40;;;;;;5113673;28;20035;-69
2023/10/22 10:52:34;;;;;;;0.85;0.60;;;16.50;83.30;;;;;;5115519;28;20023;-69
2023/10/22 10:55:06;;;;;;;1.35;0.55;;;16.60;83.10;;;;;;5122509;27;20024;-68
2023/10/22 10:57:36;;;;;;;2.85;0.90;;;16.60;84.10;;;;;;5115490;28;20055;-67
2023/10/22 11:00:04;;;;;;;1.52;0.90;;;16.70;81.30;;;;;;5130248;28;20033;-67
2023/10/22 11:02:38;;;;;;;1.27;0.60;;;16.80;80.00;;;;;;5131277;28;20020;-72
2023/10/22 11:05:04;;;;;;;1.17;0.75;;;16.80;80.20;;;;;;5099563;28;20027;-68
2023/10/22 11:07:30;;;;;;;4.15;0.73;;;16.90;79.90;;;;;;5113090;28;20050;-74
2023/10/22 11:09:56;;;;;;;0.77;0.52;;;16.90;79.50;;;;;;5112926;28;20062;-69
2023/10/22 11:12:22;;;;;;;2.17;0.70;;;16.90;79.20;;;;;;5113263;28;20032;-68
2023/10/22 11:14:55;;;;;;;1.08;0.68;;;17.00;80.30;;;;;;5112922;28;20100;-68
2023/10/22 11:17:20;;;;;;;1.02;0.55;;;17.00;80.00;;;;;;5113119;28;20028;-68
2023/10/22 11:19:50;;;;;;;3.13;0.70;;;17.10;78.70;;;;;;5112669;28;20106;-67
2023/10/22 11:22:16;;;;;;;1.05;0.60;;;17.10;77.30;;;;;;5114359;28;20428;-66
2023/10/22 11:24:42;;;;;;;1.35;0.70;;;17.10;77.10;;;;;;5119084;28;20032;-67
2023/10/22 11:27:08;;;;;;;1.50;0.52;;;17.10;76.80;;;;;;5133382;28;20019;-66
2023/10/22 11:29:41;;;;;;;1.80;0.50;;;17.20;76.30;;;;;;5132751;28;20015;-67
2023/10/22 11:32:21;;;;;;;0.45;0.32;;;17.20;75.00;;;;;;5129858;28;20023;-67
2023/10/22 11:34:54;;;;;;;1.27;0.60;;;17.20;74.90;;;;;;5093367;28;20031;-67
2023/10/22 11:37:41;;;;;;;2.50;0.68;;;17.20;75.10;;;;;;5124951;28;20368;-68
2023/10/22 11:40:33;;;;;;;0.75;0.43;;;17.20;74.80;;;;;;5132079;28;20063;-67
2023/10/22 11:43:04;;;;;;;0.73;0.47;;;17.20;74.40;;;;;;5111960;28;20032;-67
2023/10/22 11:45:34;;;;;;;2.10;0.80;;;17.20;74.50;;;;;;5114679;28;20061;-67
2023/10/22 11:48:12;;;;;;;1.20;0.70;;;17.30;74.30;;;;;;5131795;28;20348;-67
2023/10/22 11:50:38;;;;;;;0.82;0.55;;;17.30;74.40;;;;;;5131882;28;20485;-67
2023/10/22 11:53:04;;;;;;;1.10;0.80;;;17.40;74.00;;;;;;5131834;28;20025;-66
2023/10/22 11:55:30;;;;;;;1.25;0.63;;;17.40;74.00;;;;;;5132147;28;20367;-68
2023/10/22 11:57:56;;;;;;;2.42;0.70;;;17.50;73.60;;;;;;5127221;28;20101;-66
2023/10/22 12:00:22;;;;;;;2.03;0.80;;;17.50;73.40;;;;;;5116156;28;20047;-66
2023/10/22 12:02:48;;;;;;;1.33;0.60;;;17.50;73.30;;;;;;5093075;28;20055;-66
2023/10/22 12:05:14;;;;;;;1.30;0.50;;;17.60;73.00;;;;;;5095570;28;20028;-66
2023/10/22 12:07:39;;;;;;;1.10;0.60;;;17.60;73.00;;;;;;5113652;27;20031;-67
2023/10/22 12:10:06;;;;;;;1.33;0.47;;;17.70;72.70;;;;;;5135852;27;20102;-67
2023/10/22 12:12:33;;;;;;;3.45;0.52;;;17.70;72.00;;;;;;5128382;27;20027;-68
2023/10/22 12:14:59;;;;;;;2.70;0.57;;;17.70;72.00;;;;;;5131503;27;20522;-68
2023/10/22 12:17:25;;;;;;;2.88;1.00;;;17.70;71.80;;;;;;5116880;27;20031;-67
2023/10/22 12:19:50;;;;;;;3.08;0.80;;;17.70;71.70;;;;;;5129568;27;20031;-67
2023/10/22 12:22:17;;;;;;;2.50;0.73;;;17.70;71.50;;;;;;5126998;27;20489;-67
2023/10/22 12:24:43;;;;;;;2.30;0.60;;;17.80;71.60;;;;;;5135699;27;20408;-66
2023/10/22 12:27:08;;;;;;;1.23;0.68;;;17.80;70.70;;;;;;5107421;28;20035;-66
2023/10/22 12:29:34;;;;;;;0.82;0.60;;;17.80;70.40;;;;;;5131087;27;20034;-66
2023/10/22 12:32:00;;;;;;;1.02;0.70;;;17.80;70.70;;;;;;5136086;27;20055;-67
2023/10/22 12:34:27;;;;;;;1.80;0.65;;;17.80;70.60;;;;;;5136512;27;20107;-67
2023/10/22 12:36:53;;;;;;;1.35;0.70;;;17.90;70.80;;;;;;5127586;27;20039;-68
2023/10/22 12:39:20;;;;;;;1.45;0.68;;;17.90;70.00;;;;;;5127529;27;20038;-66
2023/10/22 12:41:46;;;;;;;1.48;0.73;;;18.00;70.20;;;;;;5127243;27;20058;-67
2023/10/22 12:44:11;;;;;;;1.70;0.60;;;18.00;70.60;;;;;;5127129;27;20522;-66
2023/10/22 12:46:37;;;;;;;2.30;1.00;;;18.00;69.60;;;;;;5124641;27;20030;-68
2023/10/22 12:49:03;;;;;;;2.17;0.73;;;18.10;69.50;;;;;;5126530;27;20024;-69